Terminal Aerodrome Forecast
Issued by NWS Jacksonville, FL

Home | Current Version | Previous Version | Text Only | Print | Product List | Glossary On
Versions: 1 2 3 4 5 6 7 8 9 10 11 12 13 14 15 16 17
000
FTUS42 KJAX 312300
TAFSSI
TAF
KSSI 312321Z 0100/0124 28005KT P6SM SKC
     FM010800 29014G22KT P6SM BKN035
     FM011400 29020G30KT P6SM SCT040
     FM012300 30013G20KT P6SM SCT040=

USA.gov is the U.S. government's official web portal to all federal, state and local government web resources and services.